createdAt,value
2023-03-27T00:01:00.988Z,73.11
2023-03-27T00:03:30.106Z,72.19
2023-03-27T00:06:05.205Z,72.31
2023-03-27T00:08:33.023Z,72.93
2023-03-27T00:11:01.092Z,73.29
2023-03-27T00:13:28.846Z,72.72
2023-03-27T00:15:57.171Z,72.35
2023-03-27T00:18:24.670Z,72.49
2023-03-27T00:20:51.735Z,73.20
2023-03-27T00:23:20.167Z,71.61
2023-03-27T00:25:50.430Z,71.61
2023-03-27T00:28:18.575Z,73.49
2023-03-27T00:30:45.577Z,73.09
2023-03-27T00:33:13.000Z,73.32
2023-03-27T00:35:44.466Z,74.06
2023-03-27T00:38:11.261Z,73.37
2023-03-27T00:40:39.134Z,72.68
2023-03-27T00:43:24.762Z,72.60
2023-03-27T00:45:55.482Z,71.38
2023-03-27T00:48:22.796Z,71.83
2023-03-27T00:50:49.961Z,72.59
2023-03-27T00:53:21.401Z,72.02
2023-03-27T00:55:50.289Z,71.77
2023-03-27T00:58:37.820Z,72.03
2023-03-27T01:01:05.246Z,72.29
2023-03-27T01:03:32.891Z,72.75
2023-03-27T01:06:03.188Z,73.29
2023-03-27T01:08:33.769Z,71.49
2023-03-27T01:11:13.055Z,71.38
2023-03-27T01:13:50.422Z,71.47
2023-03-27T01:16:23.480Z,71.12
2023-03-27T01:19:15.084Z,71.58
2023-03-27T01:22:13.337Z,70.75
2023-03-27T01:25:19.404Z,71.58
2023-03-27T01:28:10.643Z,71.24
2023-03-27T01:31:03.647Z,71.53
2023-03-27T01:34:04.915Z,72.95
2023-03-27T01:36:43.449Z,72.18
2023-03-27T01:39:47.940Z,73.05
2023-03-27T01:43:00.101Z,73.49
2023-03-27T01:46:04.894Z,73.39
2023-03-27T01:48:49.513Z,73.81
2023-03-27T01:51:29.254Z,73.75
2023-03-27T01:54:01.177Z,73.67
2023-03-27T01:56:38.068Z,73.85
2023-03-27T01:59:09.445Z,74.28
2023-03-27T02:01:40.167Z,73.75
2023-03-27T02:04:13.088Z,74.69
2023-03-27T02:06:43.909Z,75.98
2023-03-27T02:09:35.602Z,75.72
2023-03-27T02:12:12.147Z,75.41
2023-03-27T02:14:40.351Z,75.53
2023-03-27T02:17:10.643Z,75.22
2023-03-27T02:20:02.510Z,74.98
2023-03-27T02:22:37.691Z,75.22
2023-03-27T02:25:21.411Z,75.29
2023-03-27T02:27:51.112Z,75.06
2023-03-27T02:30:36.766Z,75.38
2023-03-27T02:33:14.920Z,75.69
2023-03-27T02:35:59.697Z,75.24
2023-03-27T02:38:32.577Z,75.11
2023-03-27T02:41:19.152Z,74.14
2023-03-27T02:43:48.739Z,74.08
2023-03-27T02:46:26.158Z,75.19
2023-03-27T02:48:57.154Z,75.50
2023-03-27T02:51:44.130Z,74.45
2023-03-27T02:54:17.204Z,74.94
2023-03-27T02:56:50.217Z,75.28
2023-03-27T02:59:42.536Z,75.14
2023-03-27T03:02:13.720Z,75.69
2023-03-27T03:05:13.044Z,75.50
2023-03-27T03:07:40.404Z,74.69
2023-03-27T03:10:09.661Z,74.55
2023-03-27T03:12:36.898Z,74.46
2023-03-27T03:15:04.381Z,73.41
2023-03-27T03:17:31.700Z,73.52
2023-03-27T03:19:59.294Z,75.02
2023-03-27T03:22:27.338Z,75.57
2023-03-27T03:24:54.417Z,75.56
2023-03-27T03:27:29.163Z,75.54
2023-03-27T03:30:05.490Z,75.26
2023-03-27T03:32:39.638Z,75.32
2023-03-27T03:35:10.044Z,76.42
2023-03-27T03:37:38.898Z,76.63
2023-03-27T03:40:12.942Z,75.35
2023-03-27T03:42:50.013Z,75.62
2023-03-27T03:45:19.907Z,76.65
2023-03-27T03:47:47.817Z,77.56
2023-03-27T03:50:15.016Z,79.40
2023-03-27T03:52:42.438Z,79.32
2023-03-27T03:55:12.280Z,80.01
2023-03-27T03:57:39.286Z,79.72
2023-03-27T04:00:13.663Z,81.03
2023-03-27T04:02:43.715Z,82.42
2023-03-27T04:05:13.375Z,82.81
2023-03-27T04:07:41.273Z,81.79
2023-03-27T04:10:27.629Z,81.80
2023-03-27T04:12:55.079Z,82.40
2023-03-27T04:15:28.220Z,83.31
2023-03-27T04:18:15.068Z,83.06
2023-03-27T04:20:42.614Z,82.54
2023-03-27T04:23:12.409Z,83.64
2023-03-27T04:25:40.410Z,82.53
2023-03-27T04:28:10.471Z,82.47
2023-03-27T04:30:44.808Z,82.68
2023-03-27T04:33:31.560Z,81.96
2023-03-27T04:36:26.355Z,82.67
2023-03-27T04:39:17.453Z,81.70
2023-03-27T04:41:50.821Z,83.01
2023-03-27T04:44:17.968Z,82.12
2023-03-27T04:46:49.199Z,81.67
2023-03-27T04:49:20.532Z,82.95
2023-03-27T04:51:56.596Z,82.97
2023-03-27T04:54:26.725Z,82.73
2023-03-27T04:56:55.013Z,83.50
2023-03-27T04:59:25.821Z,82.86
2023-03-27T05:02:13.217Z,82.73
2023-03-27T05:04:49.040Z,83.46
2023-03-27T05:07:20.118Z,83.15
2023-03-27T05:09:47.770Z,82.56
2023-03-27T05:12:14.718Z,82.73
2023-03-27T05:14:48.984Z,82.58
2023-03-27T05:17:32.674Z,81.16
2023-03-27T05:19:59.533Z,81.70
2023-03-27T05:22:26.590Z,81.66
2023-03-27T05:25:06.290Z,80.74
2023-03-27T05:27:33.155Z,80.38
2023-03-27T05:30:00.058Z,80.52
2023-03-27T05:32:27.172Z,80.60
2023-03-27T05:35:07.390Z,80.78
2023-03-27T05:37:39.270Z,81.70
2023-03-27T05:40:22.120Z,81.75
2023-03-27T05:42:50.497Z,81.37
2023-03-27T05:45:18.083Z,80.74
2023-03-27T05:47:53.046Z,81.52
2023-03-27T05:50:23.458Z,81.04
2023-03-27T05:52:59.710Z,81.40
2023-03-27T05:55:36.757Z,80.84
2023-03-27T05:58:06.072Z,80.87
2023-03-27T06:00:34.341Z,81.47
2023-03-27T06:03:02.782Z,80.63
2023-03-27T06:05:52.698Z,80.78
2023-03-27T06:08:19.629Z,80.00
2023-03-27T06:10:47.192Z,80.15
2023-03-27T06:13:20.537Z,79.91
2023-03-27T06:15:54.935Z,80.88
2023-03-27T06:18:45.644Z,80.65
2023-03-27T06:21:15.300Z,81.08
2023-03-27T06:23:42.746Z,81.52
2023-03-27T06:26:15.566Z,81.85
2023-03-27T06:28:43.619Z,82.63
2023-03-27T06:31:12.743Z,83.46
2023-03-27T06:33:43.708Z,83.09
2023-03-27T06:36:22.854Z,83.78
2023-03-27T06:38:52.399Z,84.16
2023-03-27T06:41:19.589Z,83.83
2023-03-27T06:44:01.676Z,84.40
2023-03-27T06:46:45.372Z,84.56
2023-03-27T06:49:31.137Z,84.63
2023-03-27T06:52:01.982Z,83.77
2023-03-27T06:54:29.408Z,84.15
2023-03-27T06:56:56.261Z,84.63
2023-03-27T06:59:23.414Z,84.31
2023-03-27T07:01:56.572Z,83.59
2023-03-27T07:04:25.893Z,84.52
2023-03-27T07:06:59.659Z,84.64
2023-03-27T07:09:31.411Z,84.04
2023-03-27T07:12:04.352Z,83.78
2023-03-27T07:14:32.243Z,83.79
2023-03-27T07:16:59.216Z,83.91
2023-03-27T07:19:30.543Z,85.12
2023-03-27T07:22:05.546Z,84.88
2023-03-27T07:24:34.907Z,85.08
2023-03-27T07:27:01.981Z,83.73
2023-03-27T07:29:32.456Z,84.08
2023-03-27T07:32:02.325Z,84.37
2023-03-27T07:34:46.283Z,83.72
2023-03-27T07:37:19.208Z,83.05
2023-03-27T07:40:29.393Z,82.92
2023-03-27T07:43:22.620Z,82.86
2023-03-27T07:45:49.769Z,83.05
2023-03-27T07:48:17.068Z,81.66
2023-03-27T07:50:45.596Z,82.10
2023-03-27T07:53:33.039Z,82.60
2023-03-27T07:56:10.605Z,81.54
2023-03-27T07:58:38.530Z,81.78
2023-03-27T08:01:06.338Z,82.05
2023-03-27T08:03:34.892Z,82.78
2023-03-27T08:06:01.775Z,83.85
2023-03-27T08:08:30.892Z,83.83
2023-03-27T08:11:02.050Z,84.27
2023-03-27T08:13:33.541Z,84.63
2023-03-27T08:16:11.204Z,84.81
2023-03-27T08:18:38.291Z,84.27
2023-03-27T08:21:11.872Z,85.07
2023-03-27T08:23:40.611Z,84.89
2023-03-27T08:26:26.680Z,84.75
2023-03-27T08:29:00.015Z,84.88
2023-03-27T08:31:31.773Z,84.11
2023-03-27T08:34:01.485Z,83.49
2023-03-27T08:36:38.406Z,83.45
2023-03-27T08:39:08.254Z,83.29
2023-03-27T08:41:55.268Z,82.35
2023-03-27T08:44:34.040Z,82.34
2023-03-27T08:47:29.776Z,81.38
2023-03-27T08:50:21.785Z,81.73
2023-03-27T08:52:52.590Z,81.87
2023-03-27T08:55:33.849Z,81.32
2023-03-27T08:58:20.261Z,81.79
2023-03-27T09:01:21.697Z,82.67
2023-03-27T09:04:07.465Z,81.90
2023-03-27T09:06:41.634Z,83.24
2023-03-27T09:09:38.901Z,83.22
2023-03-27T09:12:31.690Z,83.34
2023-03-27T09:15:09.669Z,82.29
2023-03-27T09:17:45.991Z,81.94
2023-03-27T09:20:21.848Z,83.18
2023-03-27T09:22:55.021Z,83.37
2023-03-27T09:25:33.854Z,82.97
2023-03-27T09:28:47.932Z,83.28
2023-03-27T09:31:34.636Z,83.92
2023-03-27T09:34:07.438Z,82.90
2023-03-27T09:36:36.044Z,82.09
2023-03-27T09:39:08.143Z,82.25
2023-03-27T09:41:43.776Z,82.78
2023-03-27T09:44:16.291Z,82.67
2023-03-27T09:46:46.659Z,82.60
2023-03-27T09:49:23.972Z,83.61
2023-03-27T09:51:56.887Z,84.22
2023-03-27T09:54:54.681Z,84.01
2023-03-27T09:57:39.595Z,83.62
2023-03-27T10:00:31.314Z,82.86
2023-03-27T10:03:08.189Z,82.93
2023-03-27T10:05:39.252Z,82.82
2023-03-27T10:08:27.268Z,83.22
2023-03-27T10:11:11.022Z,83.54
2023-03-27T10:13:48.173Z,84.30
2023-03-27T10:16:21.410Z,84.45
2023-03-27T10:19:05.230Z,83.79
2023-03-27T10:21:42.670Z,83.21
2023-03-27T10:24:17.565Z,84.22
2023-03-27T10:27:12.113Z,82.63
2023-03-27T10:29:46.811Z,83.97
2023-03-27T10:32:15.570Z,83.86
2023-03-27T10:34:55.852Z,82.80
2023-03-27T10:37:50.430Z,81.71
2023-03-27T10:40:31.751Z,81.25
2023-03-27T10:43:12.649Z,81.09
2023-03-27T10:45:53.896Z,79.41
2023-03-27T10:48:33.852Z,80.38
2023-03-27T10:51:05.739Z,79.12
2023-03-27T10:53:57.417Z,79.53
2023-03-27T10:56:49.974Z,76.37
2023-03-27T10:59:34.549Z,76.73
2023-03-27T11:02:19.556Z,77.14
2023-03-27T11:04:54.867Z,78.57
2023-03-27T11:07:26.960Z,77.40
2023-03-27T11:10:11.997Z,77.36
2023-03-27T11:12:40.598Z,78.24
2023-03-27T11:15:12.256Z,77.81
2023-03-27T11:17:54.336Z,77.16
2023-03-27T11:20:52.644Z,77.29
2023-03-27T11:23:35.556Z,77.94
2023-03-27T11:26:34.239Z,77.80
2023-03-27T11:29:30.604Z,77.15
2023-03-27T11:32:03.919Z,78.17
2023-03-27T11:34:46.965Z,76.88
2023-03-27T11:37:40.576Z,77.16
2023-03-27T11:40:26.828Z,76.82
2023-03-27T11:43:00.176Z,76.68
2023-03-27T11:45:33.744Z,77.16
2023-03-27T11:48:25.667Z,73.27
2023-03-27T11:50:56.223Z,73.92
2023-03-27T11:53:45.962Z,73.92
2023-03-27T11:56:31.985Z,73.04
2023-03-27T11:59:21.629Z,72.54
2023-03-27T12:02:29.145Z,74.29
2023-03-27T12:05:06.708Z,70.50
2023-03-27T12:08:28.952Z,70.51
2023-03-27T12:10:59.523Z,70.62
2023-03-27T12:13:58.187Z,69.69
2023-03-27T12:17:23.354Z,69.40
2023-03-27T12:20:28.839Z,70.11
2023-03-27T12:23:49.848Z,69.45
2023-03-27T12:27:02.156Z,70.44
2023-03-27T12:29:47.050Z,70.80
2023-03-27T12:32:26.048Z,69.86
2023-03-27T12:34:59.812Z,70.24
2023-03-27T12:37:39.647Z,68.77
2023-03-27T12:40:25.376Z,70.19
2023-03-27T12:42:53.558Z,70.13
2023-03-27T12:45:24.844Z,71.33
2023-03-27T12:48:27.230Z,71.97
2023-03-27T12:50:57.184Z,69.93
2023-03-27T12:53:26.112Z,68.94
2023-03-27T12:56:25.530Z,70.85
2023-03-27T12:58:54.711Z,70.16
2023-03-27T13:01:51.635Z,69.00
2023-03-27T13:04:34.336Z,70.84
2023-03-27T13:07:21.658Z,72.65
2023-03-27T13:10:07.251Z,72.94
2023-03-27T13:13:14.224Z,72.43
2023-03-27T13:16:11.917Z,73.10
2023-03-27T13:19:18.060Z,72.74
2023-03-27T13:22:13.245Z,75.59
2023-03-27T13:25:00.933Z,75.47
2023-03-27T13:28:09.089Z,74.93
2023-03-27T13:30:58.791Z,75.50
2023-03-27T13:33:47.938Z,76.84
2023-03-27T13:36:30.269Z,74.15
2023-03-27T13:38:57.299Z,74.75
2023-03-27T13:41:49.513Z,73.46
2023-03-27T13:44:29.177Z,74.43
2023-03-27T13:47:28.411Z,74.70
2023-03-27T13:50:18.973Z,74.03
2023-03-27T13:53:13.877Z,71.32
2023-03-27T13:56:07.013Z,70.53
2023-03-27T13:58:56.875Z,69.03
2023-03-27T14:01:52.221Z,70.57
2023-03-27T14:04:38.047Z,69.26
2023-03-27T14:07:36.553Z,70.94
2023-03-27T14:10:28.301Z,72.06
2023-03-27T14:13:06.829Z,75.69
2023-03-27T14:16:38.483Z,77.08
2023-03-27T14:19:44.503Z,78.86
2023-03-27T14:22:26.707Z,78.60
2023-03-27T14:25:04.725Z,79.52
2023-03-27T14:28:01.412Z,79.03
2023-03-27T14:30:30.350Z,79.20
2023-03-27T14:33:24.436Z,76.42
2023-03-27T14:36:02.381Z,77.12
2023-03-27T14:38:35.649Z,76.47
2023-03-27T14:41:18.127Z,75.45
2023-03-27T14:43:52.267Z,73.32
2023-03-27T14:46:22.342Z,74.08
2023-03-27T14:48:59.910Z,71.39
2023-03-27T14:51:42.019Z,68.52
2023-03-27T14:54:27.457Z,70.55
2023-03-27T14:57:05.003Z,69.62
2023-03-27T14:59:43.147Z,67.99
2023-03-27T15:02:29.101Z,67.61
2023-03-27T15:05:08.347Z,67.33
2023-03-27T15:07:36.467Z,67.96
2023-03-27T15:10:22.426Z,66.18
2023-03-27T15:13:10.383Z,67.52
2023-03-27T15:15:43.152Z,65.90
2023-03-27T15:18:15.397Z,65.35
2023-03-27T15:20:42.818Z,66.58
2023-03-27T15:23:38.037Z,66.20
2023-03-27T15:26:16.736Z,67.25
2023-03-27T15:28:50.226Z,64.79
2023-03-27T15:31:17.675Z,65.59
2023-03-27T15:34:25.237Z,63.60
2023-03-27T15:37:00.250Z,66.41
2023-03-27T15:39:28.854Z,66.41
2023-03-27T15:42:07.030Z,64.00
2023-03-27T15:44:40.320Z,65.97
2023-03-27T15:47:25.059Z,65.80
2023-03-27T15:53:51.130Z,68.92
2023-03-27T15:56:41.590Z,69.16
2023-03-27T15:59:13.042Z,70.14
2023-03-27T16:01:44.708Z,69.72
2023-03-27T16:04:18.881Z,70.87
2023-03-27T16:07:07.561Z,70.25
2023-03-27T16:09:46.333Z,71.44
2023-03-27T16:12:17.171Z,70.43
2023-03-27T16:14:51.863Z,71.57
2023-03-27T16:17:48.803Z,70.43
2023-03-27T16:21:08.391Z,70.12
2023-03-27T16:23:38.135Z,70.42
2023-03-27T16:29:14.628Z,71.57
2023-03-27T16:31:43.055Z,72.88
2023-03-27T16:34:21.980Z,74.24
2023-03-27T16:36:52.892Z,74.70
2023-03-27T16:39:23.224Z,72.83
2023-03-27T16:41:52.837Z,72.44
2023-03-27T16:44:21.765Z,71.26
2023-03-27T16:46:52.958Z,71.80
2023-03-27T16:49:22.900Z,70.48
2023-03-27T16:51:54.298Z,71.39
2023-03-27T16:54:50.134Z,74.77
2023-03-27T16:57:21.694Z,75.54
2023-03-27T16:59:51.492Z,75.32
2023-03-27T17:02:19.606Z,75.17
2023-03-27T17:04:47.516Z,74.94
2023-03-27T17:17:07.731Z,72.98
2023-03-27T17:20:05.910Z,72.63
2023-03-27T17:23:03.190Z,74.72
2023-03-27T17:25:34.786Z,75.53
2023-03-27T17:28:04.218Z,76.48
2023-03-27T17:30:40.997Z,76.30
2023-03-27T17:33:13.183Z,76.22
2023-03-27T17:35:41.279Z,75.60
2023-03-27T17:38:09.308Z,75.65
2023-03-27T17:40:40.559Z,74.08
2023-03-27T17:43:07.920Z,74.19
2023-03-27T17:45:35.568Z,73.60
2023-03-27T17:48:03.054Z,73.74
2023-03-27T17:50:29.987Z,73.42
2023-03-27T17:52:57.763Z,73.72
2023-03-27T17:55:24.905Z,72.89
2023-03-27T17:58:05.917Z,72.98
2023-03-27T18:00:40.454Z,72.92
2023-03-27T18:03:09.109Z,72.19
2023-03-27T18:05:40.999Z,71.70
2023-03-27T18:08:10.854Z,70.74
2023-03-27T18:10:44.923Z,71.48
2023-03-27T18:13:13.012Z,71.26
2023-03-27T18:15:41.035Z,71.54
2023-03-27T18:18:08.419Z,71.57
2023-03-27T18:20:35.890Z,71.17
2023-03-27T18:23:02.910Z,71.04
2023-03-27T18:25:30.784Z,69.74
2023-03-27T18:27:58.220Z,69.66
2023-03-27T18:30:25.612Z,70.30
2023-03-27T18:32:53.712Z,69.63
2023-03-27T18:35:20.965Z,70.04
2023-03-27T18:37:48.577Z,70.34
2023-03-27T18:40:18.749Z,70.62
2023-03-27T18:42:46.327Z,70.59
2023-03-27T18:45:15.420Z,69.89
2023-03-27T18:47:44.392Z,70.52
2023-03-27T18:50:14.283Z,69.16
2023-03-27T18:52:42.453Z,69.44
2023-03-27T18:55:11.023Z,69.33
2023-03-27T18:57:38.381Z,69.75
2023-03-27T19:00:08.965Z,69.69
2023-03-27T19:02:38.151Z,69.18
2023-03-27T19:05:08.086Z,69.84
2023-03-27T19:07:37.972Z,68.33
2023-03-27T19:10:14.536Z,66.86
2023-03-27T19:12:45.606Z,67.42
2023-03-27T19:15:36.424Z,67.24
2023-03-27T19:18:22.308Z,67.34
2023-03-27T19:21:08.018Z,68.34
2023-03-27T19:24:01.585Z,68.50
2023-03-27T19:26:35.524Z,68.69
2023-03-27T19:29:02.456Z,69.37
2023-03-27T19:31:29.917Z,70.02
2023-03-27T19:33:58.460Z,70.17
2023-03-27T19:36:26.203Z,69.57
2023-03-27T19:38:52.895Z,69.39
2023-03-27T19:41:19.862Z,70.11
2023-03-27T19:43:47.089Z,70.25
2023-03-27T19:46:16.627Z,70.49
2023-03-27T19:48:50.289Z,70.83
2023-03-27T19:51:37.470Z,71.66
2023-03-27T19:54:04.886Z,70.53
2023-03-27T19:56:32.499Z,72.04
2023-03-27T19:59:00.808Z,70.41
2023-03-27T20:01:28.752Z,71.26
2023-03-27T20:03:57.779Z,70.71
2023-03-27T20:06:26.310Z,71.26
2023-03-27T20:08:53.794Z,71.52
2023-03-27T20:11:21.210Z,71.21
2023-03-27T20:13:56.707Z,71.81
2023-03-27T20:16:26.669Z,72.15
2023-03-27T20:19:04.184Z,72.15
2023-03-27T20:21:34.659Z,72.08
2023-03-27T20:24:06.849Z,73.37
2023-03-27T20:26:40.272Z,72.66
2023-03-27T20:29:14.236Z,72.61
2023-03-27T20:31:41.213Z,72.67
2023-03-27T20:34:09.293Z,73.93
2023-03-27T20:36:39.269Z,72.36
2023-03-27T20:39:31.236Z,73.27
2023-03-27T20:41:59.350Z,72.96
2023-03-27T20:44:35.806Z,71.90
2023-03-27T20:47:11.157Z,71.83
2023-03-27T20:49:41.877Z,72.64
2023-03-27T20:52:14.029Z,71.71
2023-03-27T20:54:41.754Z,72.15
2023-03-27T20:57:11.426Z,71.75
2023-03-27T20:59:39.027Z,72.59
2023-03-27T21:02:07.029Z,70.97
2023-03-27T21:04:34.861Z,72.65
2023-03-27T21:07:02.144Z,72.77
2023-03-27T21:09:29.255Z,72.45
2023-03-27T21:11:56.802Z,71.98
2023-03-27T21:14:23.946Z,71.11
2023-03-27T21:16:51.815Z,71.94
2023-03-27T21:19:21.459Z,71.18
2023-03-27T21:21:49.533Z,71.85
2023-03-27T21:24:16.932Z,71.84
2023-03-27T21:26:48.380Z,70.79
2023-03-27T21:29:15.998Z,71.81
2023-03-27T21:31:43.797Z,73.13
2023-03-27T21:34:11.151Z,72.83
2023-03-27T21:36:39.144Z,73.16
2023-03-27T21:39:06.775Z,72.85
2023-03-27T21:41:33.761Z,72.58
2023-03-27T21:44:01.741Z,73.68
2023-03-27T21:46:28.880Z,73.77
2023-03-27T21:48:55.998Z,72.99
2023-03-27T21:51:22.983Z,73.38
2023-03-27T21:53:50.028Z,71.93
2023-03-27T21:56:17.332Z,72.74
2023-03-27T21:58:44.332Z,72.32
2023-03-27T22:01:11.908Z,72.57
2023-03-27T22:03:39.072Z,72.46
2023-03-27T22:06:12.529Z,73.13
2023-03-27T22:08:43.667Z,72.37
2023-03-27T22:11:12.536Z,72.82
2023-03-27T22:13:41.700Z,72.54
2023-03-27T22:16:14.333Z,73.84
2023-03-27T22:18:42.623Z,72.47
2023-03-27T22:21:24.478Z,72.80
2023-03-27T22:23:52.800Z,72.72
2023-03-27T22:26:22.020Z,72.15
2023-03-27T22:28:48.981Z,72.13
2023-03-27T22:31:16.160Z,72.91
2023-03-27T22:33:43.094Z,72.91
2023-03-27T22:36:11.214Z,72.39
2023-03-27T22:38:38.735Z,71.61
2023-03-27T22:41:07.751Z,71.48
2023-03-27T22:43:34.859Z,72.37
2023-03-27T22:46:10.223Z,71.17
2023-03-27T22:48:37.410Z,72.37
2023-03-27T22:51:05.756Z,72.90
2023-03-27T22:53:33.828Z,72.67
2023-03-27T22:56:01.854Z,72.94
2023-03-27T22:58:29.451Z,73.01
2023-03-27T23:00:56.363Z,73.62
2023-03-27T23:03:26.975Z,74.24
2023-03-27T23:05:54.951Z,74.13
2023-03-27T23:08:24.569Z,73.84
2023-03-27T23:11:13.379Z,75.40
2023-03-27T23:13:41.357Z,76.71
2023-03-27T23:16:09.782Z,76.95
2023-03-27T23:18:37.251Z,77.58
2023-03-27T23:21:07.237Z,76.43
2023-03-27T23:23:35.889Z,75.84
2023-03-27T23:26:04.488Z,75.39
2023-03-27T23:28:34.301Z,75.44
2023-03-27T23:31:04.504Z,75.34
2023-03-27T23:33:41.221Z,75.29
2023-03-27T23:36:11.906Z,74.67
2023-03-27T23:38:42.053Z,74.98
2023-03-27T23:41:11.326Z,75.05
2023-03-27T23:43:38.825Z,74.55
2023-03-27T23:46:10.868Z,75.40
2023-03-27T23:48:42.290Z,75.00
2023-03-27T23:51:11.093Z,75.82
2023-03-27T23:53:38.251Z,74.60
2023-03-27T23:56:06.158Z,74.96
2023-03-27T23:58:33.516Z,75.10
